Time;durP1;ratioP1;P1;durP2;ratioP2;P2;SDS_P1;SDS_P2;PMS_P1;PMS_P2;Temp;Humidity;BMP_temperature;BMP_pressure;BME280_temperature;BME280_humidity;BME280_pressure;Samples;Min_cycle;Max_cycle;Signal;HPM_P1;HPM_P2
2021/11/30 00:02:23;;;;;;;0.30;0.30;;;;;;;;;;5032099;28;20116;-87
2021/11/30 00:04:49;;;;;;;0.30;0.30;;;;;;;;;;5032053;28;20056;-87
2021/11/30 00:07:14;;;;;;;0.32;0.32;;;;;;;;;;5032071;28;20120;-85
2021/11/30 00:12:12;;;;;;;0.45;0.45;;;;;;;;;;5033082;28;20021;-86
2021/11/30 00:14:39;;;;;;;0.90;0.90;;;;;;;;;;5032603;28;20025;-86
2021/11/30 00:17:05;;;;;;;0.35;0.35;;;;;;;;;;5032102;28;20397;-88
2021/11/30 00:19:30;;;;;;;1.05;1.05;;;;;;;;;;5031837;28;20017;-86
2021/11/30 00:21:56;;;;;;;3.95;2.75;;;;;;;;;;5034164;28;20469;-87
2021/11/30 00:24:23;;;;;;;0.90;0.90;;;;;;;;;;5036228;28;20466;-86
2021/11/30 00:26:49;;;;;;;1.10;1.03;;;;;;;;;;5035968;28;20031;-84
2021/11/30 00:29:14;;;;;;;5.03;1.80;;;;;;;;;;5037273;28;20092;-85
2021/11/30 00:31:40;;;;;;;0.50;0.50;;;;;;;;;;5036137;28;20025;-85
2021/11/30 00:34:05;;;;;;;1.35;1.02;;;;;;;;;;5035832;28;20396;-84
2021/11/30 00:36:30;;;;;;;0.90;0.90;;;;;;;;;;5036184;28;20449;-84
2021/11/30 00:38:56;;;;;;;0.93;0.93;;;;;;;;;;5035756;28;20073;-85
2021/11/30 00:41:21;;;;;;;0.20;0.20;;;;;;;;;;5035497;28;20022;-84
2021/11/30 00:43:47;;;;;;;0.77;0.77;;;;;;;;;;5035545;28;20079;-85
2021/11/30 00:46:18;;;;;;;1.45;1.27;;;;;;;;;;5036292;28;20021;-85
2021/11/30 00:48:44;;;;;;;1.10;1.10;;;;;;;;;;5036119;28;20519;-85
2021/11/30 00:51:14;;;;;;;0.82;0.82;;;;;;;;;;5035402;28;20116;-84
2021/11/30 00:53:41;;;;;;;1.30;0.57;;;;;;;;;;5036563;28;20075;-85
2021/11/30 00:56:07;;;;;;;0.75;0.70;;;;;;;;;;5035955;28;20114;-84
2021/11/30 00:58:32;;;;;;;1.08;1.08;;;;;;;;;;5035252;28;20104;-84
2021/11/30 01:00:58;;;;;;;0.85;0.80;;;;;;;;;;5035346;28;20056;-85
2021/11/30 01:03:23;;;;;;;2.42;0.98;;;;;;;;;;5035268;28;20476;-85
2021/11/30 01:05:48;;;;;;;1.05;1.00;;;;;;;;;;5035441;28;20025;-84
2021/11/30 01:08:14;;;;;;;0.57;0.57;;;;;;;;;;5035190;28;20024;-85
2021/11/30 01:10:39;;;;;;;6.97;0.95;;;;;;;;;;5036143;28;20041;-85
2021/11/30 01:13:04;;;;;;;0.43;0.43;;;;;;;;;;5036044;28;20025;-83
2021/11/30 01:15:30;;;;;;;1.83;1.73;;;;;;;;;;5035179;28;20018;-85
2021/11/30 01:17:55;;;;;;;0.68;0.68;;;;;;;;;;5035711;28;20091;-85
2021/11/30 01:20:21;;;;;;;0.30;0.30;;;;;;;;;;5035032;28;20488;-85
2021/11/30 01:22:47;;;;;;;0.70;0.70;;;;;;;;;;5034971;28;20017;-85
2021/11/30 01:25:12;;;;;;;0.60;0.60;;;;;;;;;;5035006;28;20026;-84
2021/11/30 01:27:38;;;;;;;0.98;0.43;;;;;;;;;;5035515;28;20022;-84
2021/11/30 01:30:05;;;;;;;0.52;0.52;;;;;;;;;;5035011;28;20048;-85
2021/11/30 01:32:30;;;;;;;0.55;0.55;;;;;;;;;;5034672;28;20099;-85
2021/11/30 01:34:55;;;;;;;0.55;0.55;;;;;;;;;;5034693;28;20076;-83
2021/11/30 01:37:21;;;;;;;0.98;0.98;;;;;;;;;;5034794;28;20009;-84
2021/11/30 01:39:46;;;;;;;0.30;0.30;;;;;;;;;;5034400;28;20046;-84
2021/11/30 01:42:14;;;;;;;1.80;1.73;;;;;;;;;;5034654;28;20033;-84
2021/11/30 01:49:50;;;;;;;0.65;0.65;;;;;;;;;;5036242;28;20079;-86
2021/11/30 01:52:15;;;;;;;2.90;2.35;;;;;;;;;;5034536;28;20018;-86
2021/11/30 01:54:42;;;;;;;3.92;2.60;;;;;;;;;;5034574;28;20017;-84
2021/11/30 01:57:09;;;;;;;0.45;0.45;;;;;;;;;;5035417;28;20469;-84
2021/11/30 01:59:34;;;;;;;0.93;0.93;;;;;;;;;;5033909;28;20025;-85
2021/11/30 02:02:00;;;;;;;0.63;0.63;;;;;;;;;;5034057;28;20021;-84
2021/11/30 02:04:25;;;;;;;1.75;1.65;;;;;;;;;;5034410;28;20033;-85
2021/11/30 02:06:51;;;;;;;0.32;0.32;;;;;;;;;;5033955;28;20018;-84
2021/11/30 02:09:16;;;;;;;0.25;0.25;;;;;;;;;;5034149;28;20017;-84
2021/11/30 02:11:41;;;;;;;0.20;0.20;;;;;;;;;;5034131;28;20029;-84
2021/11/30 02:14:06;;;;;;;0.88;0.88;;;;;;;;;;5033802;28;20032;-83
2021/11/30 02:16:32;;;;;;;2.30;1.73;;;;;;;;;;5033806;28;20021;-84
2021/11/30 02:19:00;;;;;;;1.20;1.17;;;;;;;;;;5034106;28;20032;-84
2021/11/30 02:21:28;;;;;;;1.75;1.65;;;;;;;;;;5033794;28;20021;-84
2021/11/30 02:24:00;;;;;;;0.75;0.75;;;;;;;;;;5034046;28;20075;-84
2021/11/30 02:26:26;;;;;;;0.77;0.77;;;;;;;;;;5034499;28;20022;-86
2021/11/30 02:28:55;;;;;;;0.38;0.38;;;;;;;;;;5033667;28;20071;-86
2021/11/30 02:31:21;;;;;;;1.48;1.38;;;;;;;;;;5034210;28;20438;-85
2021/11/30 02:33:46;;;;;;;0.98;0.98;;;;;;;;;;5033516;28;20059;-85
2021/11/30 02:36:15;;;;;;;0.77;0.77;;;;;;;;;;5034070;28;20209;-85
2021/11/30 02:38:40;;;;;;;0.38;0.38;;;;;;;;;;5033162;28;20053;-85
2021/11/30 02:41:05;;;;;;;2.38;1.23;;;;;;;;;;5033783;28;20021;-84
2021/11/30 02:43:31;;;;;;;1.52;1.42;;;;;;;;;;5033035;28;20021;-86
2021/11/30 02:45:56;;;;;;;1.67;1.60;;;;;;;;;;5033421;28;20014;-85
2021/11/30 02:48:21;;;;;;;0.85;0.70;;;;;;;;;;5033390;28;20405;-85
2021/11/30 02:50:48;;;;;;;0.60;0.60;;;;;;;;;;5033378;28;20013;-83
2021/11/30 02:53:20;;;;;;;1.05;1.05;;;;;;;;;;5033291;28;20025;-84
2021/11/30 02:55:45;;;;;;;0.90;0.90;;;;;;;;;;5033367;28;20537;-87
2021/11/30 02:58:11;;;;;;;0.50;0.50;;;;;;;;;;5033192;28;20064;-85
2021/11/30 03:00:37;;;;;;;1.38;0.63;;;;;;;;;;5033181;28;20088;-84
2021/11/30 03:03:02;;;;;;;0.82;0.82;;;;;;;;;;5032897;28;20120;-85
2021/11/30 03:05:27;;;;;;;2.47;2.38;;;;;;;;;;5032999;28;20032;-86
2021/11/30 03:07:53;;;;;;;0.40;0.40;;;;;;;;;;5032879;28;20021;-85
2021/11/30 03:10:19;;;;;;;1.52;1.42;;;;;;;;;;5032992;28;20074;-85
2021/11/30 03:12:45;;;;;;;0.80;0.80;;;;;;;;;;5032661;28;20049;-85
2021/11/30 03:15:12;;;;;;;0.50;0.50;;;;;;;;;;5033858;28;20024;-83
2021/11/30 03:17:37;;;;;;;0.88;0.88;;;;;;;;;;5032704;28;20028;-83
2021/11/30 03:20:03;;;;;;;1.58;1.48;;;;;;;;;;5033463;28;20017;-83
2021/11/30 03:22:28;;;;;;;0.65;0.65;;;;;;;;;;5032440;28;20033;-84
2021/11/30 03:24:54;;;;;;;0.50;0.50;;;;;;;;;;5032604;28;20392;-85
2021/11/30 03:27:19;;;;;;;0.50;0.50;;;;;;;;;;5033082;28;20042;-87
2021/11/30 03:29:45;;;;;;;1.20;1.10;;;;;;;;;;5033898;28;20041;-85
2021/11/30 03:32:13;;;;;;;0.43;0.43;;;;;;;;;;5032534;28;20120;-86
2021/11/30 03:34:39;;;;;;;1.15;1.15;;;;;;;;;;5032708;28;20492;-87
2021/11/30 03:37:07;;;;;;;8.35;1.58;;;;;;;;;;5032642;28;20108;-85
2021/11/30 03:39:33;;;;;;;0.40;0.40;;;;;;;;;;5032125;28;20049;-84
2021/11/30 03:41:58;;;;;;;1.30;1.30;;;;;;;;;;5032227;28;20033;-84
2021/11/30 03:44:24;;;;;;;0.40;0.40;;;;;;;;;;5032769;28;20071;-86
2021/11/30 03:46:50;;;;;;;0.82;0.82;;;;;;;;;;5032805;28;20021;-86
2021/11/30 03:49:16;;;;;;;0.95;0.95;;;;;;;;;;5032402;28;20017;-85
2021/11/30 03:51:42;;;;;;;0.98;0.73;;;;;;;;;;5032191;28;20021;-84
2021/11/30 03:54:08;;;;;;;0.85;0.85;;;;;;;;;;5031974;28;20025;-86
2021/11/30 03:56:33;;;;;;;1.55;1.45;;;;;;;;;;5031225;28;20071;-84
2021/11/30 03:58:59;;;;;;;1.55;1.45;;;;;;;;;;5032383;28;20553;-86
2021/11/30 04:01:24;;;;;;;0.20;0.20;;;;;;;;;;5031974;28;20053;-84
2021/11/30 04:03:49;;;;;;;0.30;0.30;;;;;;;;;;5032387;28;20111;-83
2021/11/30 04:06:15;;;;;;;0.20;0.20;;;;;;;;;;5032039;28;20025;-84
2021/11/30 04:08:41;;;;;;;0.40;0.40;;;;;;;;;;5032034;28;20025;-87
2021/11/30 04:11:07;;;;;;;0.20;0.20;;;;;;;;;;5031914;28;20071;-88
2021/11/30 04:13:32;;;;;;;0.30;0.30;;;;;;;;;;5032975;28;20028;-90
2021/11/30 04:15:57;;;;;;;0.20;0.20;;;;;;;;;;5032350;28;20122;-90
2021/11/30 04:18:24;;;;;;;0.20;0.20;;;;;;;;;;5032273;28;20025;-88
2021/11/30 04:20:49;;;;;;;0.20;0.20;;;;;;;;;;5032289;28;20045;-87
2021/11/30 04:23:15;;;;;;;0.20;0.20;;;;;;;;;;5032069;28;20060;-90
2021/11/30 04:25:40;;;;;;;0.68;0.68;;;;;;;;;;5032098;28;20018;-86
2021/11/30 04:28:05;;;;;;;0.20;0.20;;;;;;;;;;5031764;28;20021;-89
2021/11/30 04:30:31;;;;;;;0.20;0.20;;;;;;;;;;5032013;28;20021;-86
2021/11/30 04:32:56;;;;;;;0.20;0.20;;;;;;;;;;5031882;28;20025;-88
2021/11/30 04:35:21;;;;;;;0.20;0.20;;;;;;;;;;5031890;28;20022;-88
2021/11/30 04:37:47;;;;;;;0.20;0.20;;;;;;;;;;5031853;28;20061;-86
2021/11/30 04:40:13;;;;;;;0.40;0.40;;;;;;;;;;5031887;28;20061;-88
2021/11/30 04:42:41;;;;;;;0.20;0.20;;;;;;;;;;5032172;28;20075;-86
2021/11/30 04:45:09;;;;;;;0.20;0.20;;;;;;;;;;5031909;28;20032;-87
2021/11/30 04:47:37;;;;;;;;;;;;;;;;;;5032099;28;20022;-88
2021/11/30 04:50:07;;;;;;;0.20;0.20;;;;;;;;;;5031762;28;19909;-87
2021/11/30 04:52:34;;;;;;;0.20;0.20;;;;;;;;;;5032229;28;20025;-86
2021/11/30 04:55:00;;;;;;;0.20;0.20;;;;;;;;;;5031697;28;20017;-87
2021/11/30 04:57:25;;;;;;;0.20;0.20;;;;;;;;;;5031668;28;20066;-86
2021/11/30 04:59:50;;;;;;;0.20;0.20;;;;;;;;;;5031697;28;20033;-86
2021/11/30 05:02:16;;;;;;;0.20;0.20;;;;;;;;;;5031999;28;20025;-85
2021/11/30 05:04:42;;;;;;;1.45;0.50;;;;;;;;;;5032376;28;20021;-86
2021/11/30 05:07:08;;;;;;;0.20;0.20;;;;;;;;;;5032486;28;20025;-88
2021/11/30 05:09:33;;;;;;;0.30;0.30;;;;;;;;;;5035323;28;20026;-86
2021/11/30 05:11:58;;;;;;;0.68;0.68;;;;;;;;;;5035274;28;20421;-86
2021/11/30 05:14:24;;;;;;;0.60;0.60;;;;;;;;;;5035151;28;20481;-89
2021/11/30 05:16:49;;;;;;;0.20;0.20;;;;;;;;;;5035521;28;20025;-86
2021/11/30 05:19:14;;;;;;;0.20;0.20;;;;;;;;;;5034963;28;20466;-87
2021/11/30 05:21:40;;;;;;;1.08;0.93;;;;;;;;;;5034951;28;20022;-87
2021/11/30 05:24:08;;;;;;;0.20;0.20;;;;;;;;;;5034999;28;20482;-86
2021/11/30 05:26:33;;;;;;;0.20;0.20;;;;;;;;;;5035232;28;20394;-88
2021/11/30 05:28:58;;;;;;;0.20;0.20;;;;;;;;;;5034827;28;20113;-89
2021/11/30 05:31:24;;;;;;;0.20;0.20;;;;;;;;;;5034907;28;20028;-87
2021/11/30 05:33:49;;;;;;;0.20;0.20;;;;;;;;;;5034832;28;20013;-86
2021/11/30 05:36:17;;;;;;;0.20;0.20;;;;;;;;;;5034870;28;20022;-86
2021/11/30 05:38:42;;;;;;;0.20;0.20;;;;;;;;;;5034580;28;20049;-90
2021/11/30 05:41:08;;;;;;;0.20;0.20;;;;;;;;;;5034955;28;20057;-88
2021/11/30 05:43:33;;;;;;;0.20;0.20;;;;;;;;;;5034652;28;20397;-87
2021/11/30 05:45:58;;;;;;;0.20;0.20;;;;;;;;;;5034637;28;20470;-89
2021/11/30 05:48:24;;;;;;;0.20;0.20;;;;;;;;;;5034649;28;20028;-88
2021/11/30 05:50:49;;;;;;;0.20;0.20;;;;;;;;;;5035030;28;20025;-87
2021/11/30 05:53:14;;;;;;;0.20;0.20;;;;;;;;;;5034549;28;20029;-87
2021/11/30 05:55:40;;;;;;;0.20;0.20;;;;;;;;;;5034414;28;20009;-88
2021/11/30 05:58:05;;;;;;;0.20;0.20;;;;;;;;;;5034290;28;20033;-88
2021/11/30 06:00:32;;;;;;;0.20;0.20;;;;;;;;;;5034350;28;20018;-86
2021/11/30 06:05:24;;;;;;;0.20;0.20;;;;;;;;;;5035298;28;20405;-86
2021/11/30 06:07:49;;;;;;;0.20;0.20;;;;;;;;;;5034514;28;20021;-85
2021/11/30 06:10:15;;;;;;;0.20;0.20;;;;;;;;;;5034763;28;20105;-89
2021/11/30 06:12:40;;;;;;;0.10;0.10;;;;;;;;;;5034214;28;20079;-89
2021/11/30 06:15:06;;;;;;;0.20;0.20;;;;;;;;;;5034408;28;20537;-88
2021/11/30 06:17:32;;;;;;;0.20;0.20;;;;;;;;;;5033739;28;20516;-88
2021/11/30 06:19:57;;;;;;;0.20;0.20;;;;;;;;;;5033121;28;20466;-90
2021/11/30 06:22:22;;;;;;;0.20;0.20;;;;;;;;;;5034142;28;20149;-86
2021/11/30 06:24:48;;;;;;;0.20;0.20;;;;;;;;;;5033890;28;20021;-87
2021/11/30 06:27:13;;;;;;;0.20;0.20;;;;;;;;;;5033883;28;20040;-89
2021/11/30 06:29:38;;;;;;;0.20;0.20;;;;;;;;;;5034154;28;20014;-88
2021/11/30 06:32:04;;;;;;;0.20;0.20;;;;;;;;;;5033750;28;20722;-88
2021/11/30 06:34:29;;;;;;;0.40;0.40;;;;;;;;;;5033417;28;20500;-87
2021/11/30 06:36:54;;;;;;;1.92;1.83;;;;;;;;;;5033752;28;20024;-86
2021/11/30 06:39:19;;;;;;;0.55;0.55;;;;;;;;;;5033273;28;20505;-85
2021/11/30 06:41:45;;;;;;;0.40;0.40;;;;;;;;;;5032797;28;20025;-88
2021/11/30 06:44:12;;;;;;;0.20;0.20;;;;;;;;;;5033647;28;20021;-90
2021/11/30 06:46:37;;;;;;;0.20;0.20;;;;;;;;;;5033207;28;20013;-88
2021/11/30 06:49:03;;;;;;;0.20;0.20;;;;;;;;;;5033038;28;20593;-90
2021/11/30 06:51:28;;;;;;;0.43;0.43;;;;;;;;;;5033120;28;20353;-89
2021/11/30 06:53:53;;;;;;;0.73;0.73;;;;;;;;;;5033088;28;20477;-90
2021/11/30 06:56:19;;;;;;;0.15;0.15;;;;;;;;;;5032932;28;20025;-87
2021/11/30 06:58:44;;;;;;;1.17;0.75;;;;;;;;;;5034236;28;20084;-86
2021/11/30 07:01:12;;;;;;;0.20;0.20;;;;;;;;;;5033336;28;20022;-90
2021/11/30 07:03:37;;;;;;;0.45;0.45;;;;;;;;;;5032783;28;20466;-84
2021/11/30 07:06:16;;;;;;;0.40;0.40;;;;;;;;;;5032869;28;20025;-87
2021/11/30 07:11:22;;;;;;;0.82;0.82;;;;;;;;;;5036292;28;20018;-86
2021/11/30 07:13:47;;;;;;;1.15;1.15;;;;;;;;;;5032878;28;20044;-86
2021/11/30 07:16:12;;;;;;;0.20;0.20;;;;;;;;;;5032683;28;20473;-87
2021/11/30 07:18:40;;;;;;;0.30;0.30;;;;;;;;;;5032381;28;20029;-86
2021/11/30 07:21:06;;;;;;;0.57;0.57;;;;;;;;;;5033061;28;20109;-84
2021/11/30 07:23:31;;;;;;;2.30;0.73;;;;;;;;;;5033756;28;20029;-87
2021/11/30 07:25:57;;;;;;;0.50;0.50;;;;;;;;;;5032342;28;20025;-86
2021/11/30 07:28:30;;;;;;;3.10;1.77;;;;;;;;;;5032449;28;20470;-88
2021/11/30 07:30:59;;;;;;;2.47;0.82;;;;;;;;;;5032739;28;20021;-86
2021/11/30 07:33:25;;;;;;;0.60;0.60;;;;;;;;;;5032181;28;20021;-85
2021/11/30 07:35:51;;;;;;;0.82;0.82;;;;;;;;;;5032414;28;20078;-84
2021/11/30 07:38:16;;;;;;;7.63;3.22;;;;;;;;;;5031873;28;20048;-86
2021/11/30 07:40:42;;;;;;;0.30;0.30;;;;;;;;;;5032371;28;20029;-84
2021/11/30 07:43:07;;;;;;;0.20;0.20;;;;;;;;;;5032419;28;20028;-85
2021/11/30 07:45:33;;;;;;;0.20;0.20;;;;;;;;;;5032607;28;20490;-84
2021/11/30 07:47:59;;;;;;;0.20;0.20;;;;;;;;;;5032835;28;20026;-89
2021/11/30 07:50:24;;;;;;;0.20;0.20;;;;;;;;;;5032140;28;20477;-89
2021/11/30 07:52:49;;;;;;;0.20;0.20;;;;;;;;;;5032251;28;20032;-89
2021/11/30 07:55:15;;;;;;;0.20;0.20;;;;;;;;;;5032300;28;20374;-86
2021/11/30 07:57:41;;;;;;;0.73;0.73;;;;;;;;;;5032184;28;20028;-87
2021/11/30 08:00:11;;;;;;;0.20;0.20;;;;;;;;;;5032029;28;20022;-88
2021/11/30 08:02:37;;;;;;;0.25;0.25;;;;;;;;;;5032360;28;20120;-88
2021/11/30 08:05:03;;;;;;;0.43;0.43;;;;;;;;;;5032000;28;20489;-84
2021/11/30 08:07:28;;;;;;;0.20;0.20;;;;;;;;;;5032165;28;20504;-86
2021/11/30 08:09:54;;;;;;;0.57;0.57;;;;;;;;;;5033022;28;20041;-90
2021/11/30 08:12:19;;;;;;;0.35;0.35;;;;;;;;;;5031859;28;20021;-87
2021/11/30 08:14:44;;;;;;;0.40;0.40;;;;;;;;;;5031939;28;20017;-85
2021/11/30 08:17:13;;;;;;;1.48;1.38;;;;;;;;;;5033061;28;20021;-89
2021/11/30 08:19:42;;;;;;;0.55;0.55;;;;;;;;;;5031970;28;20013;-84
2021/11/30 08:22:08;;;;;;;3.83;1.85;;;;;;;;;;5031977;28;20028;-84
2021/11/30 08:24:35;;;;;;;3.42;1.20;;;;;;;;;;5031931;28;20112;-85
2021/11/30 08:27:00;;;;;;;0.93;0.93;;;;;;;;;;5031922;28;20021;-87
2021/11/30 08:29:25;;;;;;;2.42;2.28;;;;;;;;;;5031820;28;20025;-88
2021/11/30 08:31:51;;;;;;;0.63;0.63;;;;;;;;;;5032064;28;20026;-85
2021/11/30 08:34:16;;;;;;;0.55;0.55;;;;;;;;;;5031980;28;20060;-89
2021/11/30 08:36:41;;;;;;;0.20;0.20;;;;;;;;;;5031977;28;20371;-84
2021/11/30 08:39:07;;;;;;;0.20;0.20;;;;;;;;;;5031490;28;20500;-86
2021/11/30 08:41:32;;;;;;;2.65;2.40;;;;;;;;;;5031756;28;20026;-88
2021/11/30 08:43:57;;;;;;;0.20;0.20;;;;;;;;;;5035888;28;20049;-85
2021/11/30 08:46:23;;;;;;;0.77;0.77;;;;;;;;;;5035616;28;20111;-89
2021/11/30 08:48:48;;;;;;;0.20;0.20;;;;;;;;;;5035644;28;20470;-90
2021/11/30 08:51:13;;;;;;;0.43;0.43;;;;;;;;;;5036007;28;20014;-90
2021/11/30 08:53:39;;;;;;;0.30;0.30;;;;;;;;;;5035533;28;20018;-87
2021/11/30 08:56:06;;;;;;;0.77;0.77;;;;;;;;;;5036550;28;20013;-85
2021/11/30 08:58:32;;;;;;;0.20;0.20;;;;;;;;;;5035992;28;20136;-86
2021/11/30 09:00:57;;;;;;;0.20;0.20;;;;;;;;;;5036618;28;20497;-85
2021/11/30 09:03:23;;;;;;;0.20;0.20;;;;;;;;;;5035618;28;20168;-91
2021/11/30 09:05:48;;;;;;;0.52;0.52;;;;;;;;;;5035736;28;20021;-86
2021/11/30 09:08:13;;;;;;;0.20;0.20;;;;;;;;;;5035390;28;20100;-91
2021/11/30 09:10:40;;;;;;;0.20;0.20;;;;;;;;;;5035260;28;20018;-90
2021/11/30 09:13:05;;;;;;;0.30;0.30;;;;;;;;;;5035280;28;20030;-85
2021/11/30 09:15:30;;;;;;;0.57;0.50;;;;;;;;;;5035191;28;20474;-88
2021/11/30 09:17:56;;;;;;;0.20;0.20;;;;;;;;;;5036140;28;20022;-87
2021/11/30 09:20:22;;;;;;;0.20;0.20;;;;;;;;;;5035028;28;20076;-89
2021/11/30 09:22:50;;;;;;;0.30;0.30;;;;;;;;;;5034781;28;20022;-89
2021/11/30 09:25:15;;;;;;;0.85;0.85;;;;;;;;;;5036182;28;20056;-88
2021/11/30 09:27:40;;;;;;;0.30;0.30;;;;;;;;;;5035005;28;20053;-89
2021/11/30 09:30:07;;;;;;;0.40;0.40;;;;;;;;;;5035538;28;20013;-85
2021/11/30 09:32:33;;;;;;;0.20;0.20;;;;;;;;;;5034886;28;20048;-88
2021/11/30 09:35:00;;;;;;;0.20;0.20;;;;;;;;;;5034860;28;20039;-89
2021/11/30 09:37:26;;;;;;;0.70;0.70;;;;;;;;;;5034693;28;20071;-85
2021/11/30 09:39:51;;;;;;;0.20;0.20;;;;;;;;;;5034252;28;20502;-87
2021/11/30 09:42:17;;;;;;;0.20;0.20;;;;;;;;;;5034598;28;20040;-89
2021/11/30 09:44:44;;;;;;;0.50;0.50;;;;;;;;;;5034545;28;20064;-90
2021/11/30 09:47:10;;;;;;;0.20;0.20;;;;;;;;;;5035470;28;20022;-90
2021/11/30 09:49:36;;;;;;;0.20;0.20;;;;;;;;;;5034612;28;20048;-88
2021/11/30 09:52:01;;;;;;;0.20;0.20;;;;;;;;;;5034095;28;20020;-85
2021/11/30 09:54:27;;;;;;;0.30;0.30;;;;;;;;;;5033373;28;20053;-85
2021/11/30 09:56:52;;;;;;;0.63;0.63;;;;;;;;;;5034639;28;20528;-89
2021/11/30 09:59:17;;;;;;;0.20;0.20;;;;;;;;;;5034403;28;20611;-85
2021/11/30 10:01:43;;;;;;;0.20;0.20;;;;;;;;;;5034671;28;20048;-87
2021/11/30 10:04:08;;;;;;;0.20;0.20;;;;;;;;;;5034306;28;20025;-85
2021/11/30 10:06:34;;;;;;;0.73;0.73;;;;;;;;;;5034063;28;20013;-89
2021/11/30 10:08:59;;;;;;;0.20;0.20;;;;;;;;;;5034341;28;20464;-83
2021/11/30 10:11:28;;;;;;;0.45;0.45;;;;;;;;;;5034472;28;20117;-86
2021/11/30 10:14:06;;;;;;;0.50;0.50;;;;;;;;;;5034169;28;20029;-84
2021/11/30 10:16:31;;;;;;;0.30;0.30;;;;;;;;;;5034185;28;20075;-85
2021/11/30 10:18:59;;;;;;;0.40;0.40;;;;;;;;;;5033986;28;20026;-87
2021/11/30 10:21:24;;;;;;;0.45;0.40;;;;;;;;;;5033799;28;20022;-84
2021/11/30 10:23:55;;;;;;;0.60;0.60;;;;;;;;;;5033956;28;20040;-89
2021/11/30 10:26:25;;;;;;;0.20;0.20;;;;;;;;;;5033865;28;20212;-86
2021/11/30 10:28:57;;;;;;;0.20;0.20;;;;;;;;;;5033662;28;20082;-86
2021/11/30 10:31:27;;;;;;;0.75;0.75;;;;;;;;;;5034504;28;20462;-83
2021/11/30 10:33:53;;;;;;;0.35;0.35;;;;;;;;;;5032953;28;20386;-89
2021/11/30 10:36:19;;;;;;;0.30;0.30;;;;;;;;;;5033270;28;20033;-89
2021/11/30 10:38:44;;;;;;;0.30;0.30;;;;;;;;;;5033150;28;20104;-86
2021/11/30 10:41:11;;;;;;;1.77;1.60;;;;;;;;;;5033167;28;20457;-87
2021/11/30 10:43:39;;;;;;;0.55;0.55;;;;;;;;;;5033233;28;20037;-88
2021/11/30 10:46:07;;;;;;;0.70;0.70;;;;;;;;;;5033229;28;20436;-90
2021/11/30 10:48:33;;;;;;;0.70;0.70;;;;;;;;;;5033143;28;20026;-83
2021/11/30 10:50:59;;;;;;;0.60;0.60;;;;;;;;;;5033344;28;20105;-84
2021/11/30 10:53:30;;;;;;;1.10;0.68;;;;;;;;;;5032938;28;20124;-86
2021/11/30 10:55:57;;;;;;;0.28;0.28;;;;;;;;;;5033952;28;20017;-85
2021/11/30 10:58:24;;;;;;;0.57;0.57;;;;;;;;;;5032752;28;20028;-86
2021/11/30 11:00:50;;;;;;;0.50;0.50;;;;;;;;;;5032964;28;20052;-84
2021/11/30 11:03:18;;;;;;;0.70;0.70;;;;;;;;;;5033772;28;20064;-83
2021/11/30 11:05:48;;;;;;;9.90;4.53;;;;;;;;;;5032491;28;20565;-85
2021/11/30 11:08:18;;;;;;;3.00;2.90;;;;;;;;;;5032521;28;20496;-81
2021/11/30 11:10:45;;;;;;;11.57;5.47;;;;;;;;;;5032479;28;20330;-86
2021/11/30 11:13:24;;;;;;;12.95;3.30;;;;;;;;;;5032640;28;20056;-87
2021/11/30 11:15:50;;;;;;;4.85;3.85;;;;;;;;;;5032394;28;20466;-85
2021/11/30 11:18:25;;;;;;;2.15;1.95;;;;;;;;;;5030401;28;20025;-85
2021/11/30 11:21:08;;;;;;;3.00;2.60;;;;;;;;;;5032266;28;20496;-85
2021/11/30 11:23:34;;;;;;;0.70;0.70;;;;;;;;;;5032122;28;20026;-83
2021/11/30 11:26:12;;;;;;;0.70;0.70;;;;;;;;;;5032028;28;20021;-85
2021/11/30 11:28:38;;;;;;;0.70;0.70;;;;;;;;;;5033687;28;20462;-86
2021/11/30 11:31:03;;;;;;;0.70;0.70;;;;;;;;;;5032608;28;20029;-82
2021/11/30 11:33:29;;;;;;;0.32;0.32;;;;;;;;;;5032409;28;20524;-89
2021/11/30 11:35:54;;;;;;;0.50;0.50;;;;;;;;;;5032488;28;20024;-90
2021/11/30 11:38:19;;;;;;;0.60;0.60;;;;;;;;;;5031946;28;20126;-85
2021/11/30 11:40:45;;;;;;;0.43;0.43;;;;;;;;;;5032593;28;20469;-87
2021/11/30 11:43:10;;;;;;;0.30;0.30;;;;;;;;;;5032288;28;20469;-85
2021/11/30 11:45:37;;;;;;;1.48;0.45;;;;;;;;;;5032309;28;20046;-85
2021/11/30 11:48:06;;;;;;;1.00;1.00;;;;;;;;;;5033276;28;20018;-88
2021/11/30 11:50:47;;;;;;;0.95;0.95;;;;;;;;;;5032168;28;20426;-87
2021/11/30 11:53:24;;;;;;;0.30;0.30;;;;;;;;;;5032378;28;20528;-82
2021/11/30 11:56:08;;;;;;;0.30;0.30;;;;;;;;;;5031901;28;20018;-82
2021/11/30 11:58:34;;;;;;;0.32;0.32;;;;;;;;;;5033077;28;20171;-84
2021/11/30 12:01:00;;;;;;;0.20;0.20;;;;;;;;;;5031841;28;20108;-86
2021/11/30 12:03:45;;;;;;;0.30;0.30;;;;;;;;;;5031744;28;20109;-86
2021/11/30 12:06:17;;;;;;;2.08;1.98;;;;;;;;;;5031478;28;20025;-86
2021/11/30 12:09:03;;;;;;;1.88;1.75;;;;;;;;;;5033056;28;20092;-89
2021/11/30 12:11:36;;;;;;;3.95;1.27;;;;;;;;;;5031900;28;20023;-84
2021/11/30 12:14:08;;;;;;;1.48;1.48;;;;;;;;;;5031790;28;20536;-85
2021/11/30 12:16:53;;;;;;;1.67;1.58;;;;;;;;;;5030885;28;20029;-85
2021/11/30 12:19:28;;;;;;;1.20;0.80;;;;;;;;;;5031986;28;20053;-85
2021/11/30 12:21:54;;;;;;;2.35;2.17;;;;;;;;;;5031662;28;20025;-83
2021/11/30 12:24:38;;;;;;;0.30;0.30;;;;;;;;;;5031701;28;20032;-85
2021/11/30 12:27:29;;;;;;;0.28;0.28;;;;;;;;;;5032166;28;20049;-89
2021/11/30 12:29:55;;;;;;;0.75;0.75;;;;;;;;;;5024112;28;20029;-90
2021/11/30 12:32:20;;;;;;;2.50;1.05;;;;;;;;;;5031534;28;20024;-85
2021/11/30 12:34:48;;;;;;;0.20;0.20;;;;;;;;;;5032032;28;20076;-88
2021/11/30 12:37:18;;;;;;;0.20;0.20;;;;;;;;;;5031378;28;20260;-82
2021/11/30 12:39:56;;;;;;;1.02;0.98;;;;;;;;;;5031164;28;20485;-85
2021/11/30 12:42:21;;;;;;;0.40;0.40;;;;;;;;;;5031348;28;20092;-85
2021/11/30 12:44:47;;;;;;;0.22;0.22;;;;;;;;;;5031864;28;20037;-88
2021/11/30 12:47:22;;;;;;;0.25;0.25;;;;;;;;;;5031570;28;20025;-87
2021/11/30 12:49:48;;;;;;;0.52;0.52;;;;;;;;;;5031237;28;20018;-85
2021/11/30 12:52:15;;;;;;;0.98;0.98;;;;;;;;;;5031396;28;20071;-89
2021/11/30 12:54:42;;;;;;;0.52;0.52;;;;;;;;;;5031492;28;20017;-84
2021/11/30 12:57:09;;;;;;;1.40;1.30;;;;;;;;;;5031475;28;20025;-86
2021/11/30 12:59:37;;;;;;;1.15;1.13;;;;;;;;;;5031568;28;20472;-84
2021/11/30 13:02:17;;;;;;;1.55;1.23;;;;;;;;;;5031163;28;20490;-86
2021/11/30 13:04:42;;;;;;;1.10;1.05;;;;;;;;;;5031726;28;20029;-84
2021/11/30 13:07:09;;;;;;;0.57;0.57;;;;;;;;;;5031478;28;20052;-86
2021/11/30 13:09:45;;;;;;;0.73;0.73;;;;;;;;;;5031225;28;20017;-85
2021/11/30 13:12:14;;;;;;;0.30;0.30;;;;;;;;;;5031163;28;20429;-89
2021/11/30 13:14:39;;;;;;;0.40;0.40;;;;;;;;;;5031369;28;20121;-86
2021/11/30 13:17:05;;;;;;;0.80;0.57;;;;;;;;;;5030910;28;20461;-83
2021/11/30 13:19:35;;;;;;;1.17;0.90;;;;;;;;;;5030825;28;20018;-88
2021/11/30 13:22:01;;;;;;;1.00;1.00;;;;;;;;;;5031086;28;20482;-87
2021/11/30 13:24:35;;;;;;;1.58;1.48;;;;;;;;;;5031065;28;20036;-84
2021/11/30 13:27:12;;;;;;;0.68;0.68;;;;;;;;;;5031014;28;20017;-85
2021/11/30 13:29:38;;;;;;;0.38;0.38;;;;;;;;;;5034251;28;20021;-89
2021/11/30 13:32:06;;;;;;;0.60;0.60;;;;;;;;;;5034704;28;20544;-86
2021/11/30 13:34:32;;;;;;;0.47;0.47;;;;;;;;;;5034696;28;20025;-81
2021/11/30 13:36:57;;;;;;;0.30;0.30;;;;;;;;;;5035327;28;20018;-86
2021/11/30 13:39:22;;;;;;;0.47;0.47;;;;;;;;;;5034092;28;20064;-83
2021/11/30 13:41:48;;;;;;;1.02;1.02;;;;;;;;;;5034831;28;20474;-81
2021/11/30 13:44:13;;;;;;;0.30;0.30;;;;;;;;;;5034399;28;20029;-84
2021/11/30 13:46:40;;;;;;;0.25;0.25;;;;;;;;;;5034333;28;20028;-88
2021/11/30 13:49:07;;;;;;;0.50;0.50;;;;;;;;;;5034385;28;20018;-84
2021/11/30 13:51:34;;;;;;;0.50;0.50;;;;;;;;;;5034193;28;20335;-82
2021/11/30 13:54:19;;;;;;;1.00;1.00;;;;;;;;;;5034084;28;20017;-84
2021/11/30 13:56:50;;;;;;;0.63;0.63;;;;;;;;;;5034751;28;20501;-81
2021/11/30 13:59:19;;;;;;;0.20;0.20;;;;;;;;;;5034319;28;20063;-81
2021/11/30 14:04:13;;;;;;;1.08;1.08;;;;;;;;;;5035228;28;20056;-82
2021/11/30 14:06:39;;;;;;;0.32;0.32;;;;;;;;;;5033919;28;20620;-84
2021/11/30 14:09:07;;;;;;;0.20;0.20;;;;;;;;;;5034041;28;20064;-82
2021/11/30 14:11:34;;;;;;;0.60;0.60;;;;;;;;;;5034288;28;20017;-84
2021/11/30 14:14:00;;;;;;;0.20;0.20;;;;;;;;;;5034238;28;20075;-85
2021/11/30 14:16:25;;;;;;;0.38;0.38;;;;;;;;;;5033883;28;20021;-84
2021/11/30 14:18:52;;;;;;;0.30;0.30;;;;;;;;;;5033886;28;20053;-86
2021/11/30 14:21:18;;;;;;;1.27;1.02;;;;;;;;;;5033794;28;20109;-83
2021/11/30 14:23:43;;;;;;;8.88;2.28;;;;;;;;;;5033781;28;20125;-82
2021/11/30 14:26:23;;;;;;;2.92;1.58;;;;;;;;;;5034586;28;20025;-82
2021/11/30 14:29:03;;;;;;;1.85;1.75;;;;;;;;;;5033755;28;20040;-82
2021/11/30 14:31:48;;;;;;;0.20;0.20;;;;;;;;;;5033513;28;20024;-83
2021/11/30 14:34:14;;;;;;;0.88;0.88;;;;;;;;;;5033046;28;20017;-86
2021/11/30 14:36:39;;;;;;;0.20;0.20;;;;;;;;;;5034605;28;20101;-87
2021/11/30 14:39:20;;;;;;;0.70;0.65;;;;;;;;;;5033008;28;20049;-84
2021/11/30 14:41:46;;;;;;;0.60;0.60;;;;;;;;;;5033158;28;20068;-84
2021/11/30 14:44:31;;;;;;;0.30;0.30;;;;;;;;;;5033526;28;20025;-84
2021/11/30 14:46:58;;;;;;;0.70;0.70;;;;;;;;;;5033564;28;20049;-87
2021/11/30 14:49:24;;;;;;;0.63;0.63;;;;;;;;;;5033361;28;20059;-84
2021/11/30 14:51:50;;;;;;;0.40;0.40;;;;;;;;;;5033391;28;20508;-84
2021/11/30 14:54:16;;;;;;;0.20;0.20;;;;;;;;;;5033609;28;20028;-81
2021/11/30 14:56:43;;;;;;;0.20;0.20;;;;;;;;;;5033242;28;20044;-85
2021/11/30 14:59:08;;;;;;;0.68;0.68;;;;;;;;;;5032813;28;20049;-86